Time;durP1;ratioP1;P1;durP2;ratioP2;P2;SDS_P1;SDS_P2;PMS_P1;PMS_P2;Temp;Humidity;BMP_temperature;BMP_pressure;BME280_temperature;BME280_humidity;BME280_pressure;Samples;Min_cycle;Max_cycle;Signal;HPM_P1;HPM_P2
2021/04/15 00:01:36;;;;;;;3.05;1.60;;;5.00;88.20;;;;;;4916592;29;20028;-71
2021/04/15 00:04:03;;;;;;;6.50;2.03;;;4.90;88.20;;;;;;4916356;29;20031;-72
2021/04/15 00:06:30;;;;;;;5.50;1.67;;;4.90;88.10;;;;;;4917262;29;20059;-69
2021/04/15 00:08:57;;;;;;;6.32;2.38;;;4.90;88.50;;;;;;4917367;29;20027;-70
2021/04/15 00:11:27;;;;;;;3.83;1.80;;;4.90;88.50;;;;;;4918084;29;20099;-71
2021/04/15 00:13:55;;;;;;;8.18;2.13;;;4.90;88.70;;;;;;4916806;29;20028;-69
2021/04/15 00:16:22;;;;;;;4.85;1.45;;;4.90;88.50;;;;;;4916604;29;20095;-70
2021/04/15 00:18:47;;;;;;;3.70;1.85;;;4.90;88.50;;;;;;4917102;29;20043;-72
2021/04/15 00:21:14;;;;;;;5.75;1.83;;;4.90;88.50;;;;;;4917132;29;20381;-68
2021/04/15 00:23:40;;;;;;;3.78;1.70;;;5.00;88.90;;;;;;4917454;29;20030;-71
2021/04/15 00:26:08;;;;;;;4.00;1.75;;;4.90;88.80;;;;;;4917221;29;20389;-72
2021/04/15 00:28:34;;;;;;;3.58;1.75;;;4.90;89.40;;;;;;4916883;29;20032;-71
2021/04/15 00:30:59;;;;;;;5.25;1.50;;;5.00;89.60;;;;;;4915891;29;20020;-69
2021/04/15 00:33:25;;;;;;;3.72;1.45;;;5.00;90.00;;;;;;4917300;29;20442;-70
2021/04/15 00:35:51;;;;;;;1.98;1.27;;;5.00;90.20;;;;;;4916362;29;20064;-71
2021/04/15 00:38:18;;;;;;;1.92;1.33;;;5.00;90.30;;;;;;4917316;29;20084;-71
2021/04/15 00:40:46;;;;;;;3.33;1.02;;;5.10;90.60;;;;;;4917133;29;20429;-68
2021/04/15 00:43:13;;;;;;;3.47;1.27;;;5.10;90.70;;;;;;4916478;29;20091;-70
2021/04/15 00:45:42;;;;;;;2.67;1.20;;;5.20;90.60;;;;;;4917575;29;20028;-70
2021/04/15 00:48:15;;;;;;;1.58;0.90;;;5.10;90.80;;;;;;4915972;29;20115;-72
2021/04/15 00:50:58;;;;;;;3.70;1.67;;;5.10;91.00;;;;;;4915897;29;20496;-70
2021/04/15 00:53:43;;;;;;;2.75;1.00;;;5.00;91.20;;;;;;4917047;29;20392;-68
2021/04/15 00:56:10;;;;;;;4.18;1.27;;;5.00;91.40;;;;;;4916466;29;20076;-71
2021/04/15 00:58:36;;;;;;;1.77;0.93;;;4.90;91.70;;;;;;4917008;29;20040;-70
2021/04/15 01:01:04;;;;;;;2.65;0.90;;;4.90;91.80;;;;;;4916707;29;20083;-72
2021/04/15 01:03:31;;;;;;;3.53;1.10;;;4.90;92.00;;;;;;4915001;29;20520;-71
2021/04/15 01:05:56;;;;;;;2.78;1.00;;;4.90;92.20;;;;;;4916139;29;20020;-67
2021/04/15 01:08:22;;;;;;;2.55;1.10;;;4.80;92.30;;;;;;4916969;29;20084;-69
2021/04/15 01:11:20;;;;;;;1.65;1.13;;;4.80;92.50;;;;;;4914651;29;20533;-69
2021/04/15 01:13:55;;;;;;;2.05;1.00;;;4.80;92.40;;;;;;4916315;29;20028;-68
2021/04/15 01:16:50;;;;;;;1.05;0.88;;;4.80;92.60;;;;;;4916178;29;20056;-68
2021/04/15 01:19:40;;;;;;;3.60;1.00;;;4.80;92.60;;;;;;4897906;29;20093;-70
2021/04/15 01:22:49;;;;;;;6.13;1.80;;;4.80;92.50;;;;;;4897548;29;20028;-69
2021/04/15 01:25:35;;;;;;;1.92;1.00;;;4.80;92.70;;;;;;4897067;29;20024;-70
2021/04/15 01:28:21;;;;;;;2.13;1.30;;;4.70;92.70;;;;;;4901400;29;20048;-69
2021/04/15 01:31:07;;;;;;;1.83;1.08;;;4.70;92.70;;;;;;4915695;29;20028;-68
2021/04/15 01:33:42;;;;;;;3.47;3.28;;;4.50;92.80;;;;;;4916258;29;20489;-71
2021/04/15 01:36:17;;;;;;;4.18;0.80;;;4.50;92.90;;;;;;4916228;29;20492;-68
2021/04/15 01:39:02;;;;;;;2.88;1.00;;;4.40;92.90;;;;;;4915874;29;20052;-71
2021/04/15 01:41:54;;;;;;;3.35;1.02;;;4.30;93.00;;;;;;4916271;29;20485;-67
2021/04/15 01:44:19;;;;;;;;;;;4.30;93.30;;;;;;4911713;29;20062;-69
2021/04/15 01:46:46;;;;;;;1.42;1.00;;;4.30;93.40;;;;;;4915837;29;19995;-67
2021/04/15 01:49:14;;;;;;;1.80;0.80;;;4.30;93.30;;;;;;4914278;29;20029;-72
2021/04/15 01:51:45;;;;;;;1.63;1.08;;;4.30;93.40;;;;;;4914262;29;20035;-71
2021/04/15 01:54:29;;;;;;;0.80;0.80;;;4.30;93.50;;;;;;4915809;29;20024;-68
2021/04/15 01:57:04;;;;;;;1.55;1.10;;;4.30;93.50;;;;;;4915773;29;20020;-69
2021/04/15 01:59:41;;;;;;;1.75;0.93;;;4.30;93.40;;;;;;4915372;29;20115;-70
2021/04/15 02:02:10;;;;;;;0.93;0.70;;;4.40;93.50;;;;;;4915682;29;20079;-70
2021/04/15 02:04:42;;;;;;;1.13;0.90;;;4.40;93.50;;;;;;4915790;29;20028;-71
2021/04/15 02:07:16;;;;;;;1.25;0.80;;;4.40;93.50;;;;;;4914810;29;20440;-68
2021/04/15 02:09:45;;;;;;;1.23;1.13;;;4.50;93.60;;;;;;4915788;29;20084;-68
2021/04/15 02:12:24;;;;;;;2.42;1.00;;;4.50;93.50;;;;;;4915693;29;20321;-67
2021/04/15 02:15:03;;;;;;;2.85;1.48;;;4.60;93.50;;;;;;4915169;29;20024;-69
2021/04/15 02:17:36;;;;;;;1.00;0.90;;;4.60;93.40;;;;;;4913651;29;20035;-68
2021/04/15 02:20:07;;;;;;;1.77;1.13;;;4.70;93.50;;;;;;4914940;29;20062;-68
2021/04/15 02:22:49;;;;;;;4.25;1.02;;;4.80;93.50;;;;;;4915496;29;20020;-70
2021/04/15 02:25:20;;;;;;;1.63;0.90;;;4.80;93.50;;;;;;4915317;29;20028;-67
2021/04/15 02:28:02;;;;;;;3.00;1.30;;;4.90;93.40;;;;;;4914447;29;20039;-68
2021/04/15 02:30:41;;;;;;;1.60;0.97;;;4.90;93.40;;;;;;4915397;29;20351;-69
2021/04/15 02:33:11;;;;;;;1.52;1.13;;;4.90;93.30;;;;;;4915332;29;20311;-71
2021/04/15 02:35:43;;;;;;;2.67;1.17;;;4.90;93.40;;;;;;4915194;29;20119;-68
2021/04/15 02:38:10;;;;;;;1.75;1.25;;;5.00;93.40;;;;;;4915006;29;20484;-68
2021/04/15 02:40:41;;;;;;;3.70;1.25;;;5.00;93.40;;;;;;4914712;29;20479;-70
2021/04/15 02:43:18;;;;;;;1.10;1.00;;;5.00;93.40;;;;;;4914967;29;20020;-70
2021/04/15 02:45:48;;;;;;;1.50;1.17;;;5.00;93.40;;;;;;4913946;29;20040;-69
2021/04/15 02:48:27;;;;;;;3.72;1.42;;;5.10;93.50;;;;;;4913391;29;20030;-72
2021/04/15 02:51:03;;;;;;;1.33;1.02;;;5.10;93.40;;;;;;4914884;29;20100;-69
2021/04/15 02:53:34;;;;;;;1.10;1.00;;;5.10;93.40;;;;;;4915162;29;20032;-71
2021/04/15 02:56:08;;;;;;;1.20;1.10;;;5.10;93.40;;;;;;4914431;29;20028;-71
2021/04/15 02:58:50;;;;;;;2.20;1.23;;;5.10;93.40;;;;;;4915147;29;20048;-72
2021/04/15 03:01:20;;;;;;;2.15;1.23;;;5.10;93.40;;;;;;4913835;29;20031;-71
2021/04/15 03:03:50;;;;;;;1.50;1.30;;;5.10;93.40;;;;;;4914049;29;20058;-71
2021/04/15 03:06:20;;;;;;;2.45;1.40;;;5.10;93.40;;;;;;4915111;29;20548;-68
2021/04/15 03:08:50;;;;;;;2.22;1.15;;;5.10;93.40;;;;;;4913000;29;20115;-68
2021/04/15 03:11:27;;;;;;;1.88;1.30;;;5.20;93.40;;;;;;4913999;29;20031;-69
2021/04/15 03:13:56;;;;;;;2.83;1.33;;;5.20;93.40;;;;;;4913229;29;20029;-69
2021/04/15 03:16:26;;;;;;;2.83;1.40;;;5.10;93.30;;;;;;4914492;29;20056;-69
2021/04/15 03:19:00;;;;;;;1.45;1.08;;;5.10;93.30;;;;;;4914753;29;20040;-68
2021/04/15 03:21:48;;;;;;;1.40;1.13;;;4.90;93.30;;;;;;4914975;29;20051;-72
2021/04/15 03:24:21;;;;;;;3.97;1.30;;;4.80;93.40;;;;;;4914385;29;20594;-71
2021/04/15 03:27:21;;;;;;;1.52;1.17;;;4.70;93.40;;;;;;4914640;29;20056;-67
2021/04/15 03:29:58;;;;;;;4.18;1.92;;;4.50;93.50;;;;;;4915773;29;20039;-67
2021/04/15 03:33:21;;;;;;;4.63;1.85;;;4.50;93.60;;;;;;4918729;29;20111;-67
2021/04/15 03:36:12;;;;;;;;;;;4.40;93.80;;;;;;4897601;29;20044;-68
2021/04/15 03:38:45;;;;;;;1.73;1.25;;;4.30;93.80;;;;;;4889445;29;20352;-69
2021/04/15 03:41:15;;;;;;;3.63;1.50;;;4.20;93.70;;;;;;4911806;29;20529;-69
2021/04/15 03:44:07;;;;;;;4.22;2.17;;;4.00;93.80;;;;;;4917980;29;20460;-69
2021/04/15 03:46:48;;;;;;;2.38;1.50;;;3.90;94.00;;;;;;4918239;29;20473;-70
2021/04/15 03:49:21;;;;;;;1.60;1.45;;;3.90;94.10;;;;;;4918356;29;20036;-69
2021/04/15 03:51:59;;;;;;;2.75;1.50;;;3.80;94.20;;;;;;4917458;29;20048;-70
2021/04/15 03:54:30;;;;;;;4.32;1.60;;;3.70;94.20;;;;;;4918278;29;20028;-71
2021/04/15 03:56:58;;;;;;;2.00;1.42;;;3.60;94.30;;;;;;4918148;29;20028;-68
2021/04/15 03:59:45;;;;;;;2.50;1.25;;;3.60;94.30;;;;;;4917562;29;20091;-67
2021/04/15 04:02:18;;;;;;;3.67;1.30;;;3.50;94.40;;;;;;4918003;29;20047;-68
2021/04/15 04:04:54;;;;;;;1.60;1.50;;;3.50;94.50;;;;;;4917778;29;20126;-68
2021/04/15 04:07:25;;;;;;;2.95;1.52;;;3.50;94.60;;;;;;4918066;29;20032;-71
2021/04/15 04:09:58;;;;;;;5.30;1.70;;;3.50;94.70;;;;;;4917798;29;20032;-69
2021/04/15 04:12:39;;;;;;;3.15;2.03;;;3.50;94.70;;;;;;4917345;29;20283;-69
2021/04/15 04:15:26;;;;;;;2.15;1.67;;;3.50;94.70;;;;;;4917462;29;20079;-69
2021/04/15 04:18:00;;;;;;;4.18;2.15;;;3.50;94.60;;;;;;4917340;29;20115;-68
2021/04/15 04:20:30;;;;;;;2.42;1.40;;;3.50;94.50;;;;;;4916902;29;20032;-71
2021/04/15 04:23:22;;;;;;;3.95;1.83;;;3.50;94.50;;;;;;4916008;29;20025;-68
2021/04/15 04:26:05;;;;;;;2.38;1.90;;;3.50;94.50;;;;;;4917600;29;20136;-71
2021/04/15 04:28:37;;;;;;;3.22;2.45;;;3.40;94.50;;;;;;4917506;29;20024;-68
2021/04/15 04:31:15;;;;;;;3.75;1.90;;;3.40;94.50;;;;;;4917286;29;20028;-69
2021/04/15 04:33:47;;;;;;;3.75;3.45;;;3.30;94.60;;;;;;4915320;29;20044;-70
2021/04/15 04:36:13;;;;;;;;;;;3.30;94.70;;;;;;4917853;29;20040;-69
2021/04/15 04:38:40;;;;;;;1.88;1.77;;;3.20;94.80;;;;;;4917076;29;19923;-72
2021/04/15 04:41:24;;;;;;;2.58;1.88;;;3.20;94.70;;;;;;4914287;29;20048;-70
2021/04/15 04:43:54;;;;;;;2.35;1.95;;;3.20;94.80;;;;;;4914711;29;20035;-71
2021/04/15 04:46:43;;;;;;;3.10;2.25;;;3.20;94.90;;;;;;4914643;29;20021;-72
2021/04/15 04:49:24;;;;;;;3.80;2.65;;;3.30;95.00;;;;;;4915310;29;20032;-72
2021/04/15 04:51:57;;;;;;;3.55;2.60;;;3.40;95.00;;;;;;4916595;29;20492;-71
2021/04/15 04:54:25;;;;;;;3.03;2.60;;;3.50;95.00;;;;;;4916260;29;20046;-71
2021/04/15 04:57:07;;;;;;;3.92;2.70;;;3.70;95.00;;;;;;4916795;29;20056;-69
2021/04/15 04:59:40;;;;;;;3.22;3.00;;;3.80;94.90;;;;;;4916845;29;20036;-69
2021/04/15 05:02:05;;;;;;;4.18;2.80;;;3.90;94.90;;;;;;4915096;29;20032;-69
2021/04/15 05:04:36;;;;;;;5.35;3.10;;;3.90;95.10;;;;;;4916704;29;20031;-68
2021/04/15 05:07:04;;;;;;;3.42;3.03;;;4.00;94.80;;;;;;4896612;29;20025;-71
2021/04/15 05:09:40;;;;;;;3.63;2.85;;;4.00;94.70;;;;;;4897178;29;20037;-70
2021/04/15 05:12:12;;;;;;;4.40;3.25;;;4.10;94.70;;;;;;4894959;29;20377;-69
2021/04/15 05:14:38;;;;;;;5.95;2.90;;;4.10;94.70;;;;;;4909245;29;20540;-70
2021/04/15 05:17:22;;;;;;;6.80;3.13;;;4.20;94.60;;;;;;4914969;29;20036;-76
2021/04/15 05:19:48;;;;;;;3.78;2.97;;;4.30;94.50;;;;;;4916068;29;20028;-71
2021/04/15 05:22:29;;;;;;;7.07;3.58;;;4.40;94.50;;;;;;4915599;29;20016;-73
2021/04/15 05:25:10;;;;;;;5.93;3.47;;;4.50;94.40;;;;;;4915365;29;20016;-70
2021/04/15 05:27:38;;;;;;;8.52;4.38;;;4.60;94.40;;;;;;4916060;29;20028;-69
2021/04/15 05:30:13;;;;;;;4.28;3.38;;;4.80;94.30;;;;;;4915164;29;20821;-72
2021/04/15 05:32:39;;;;;;;7.30;4.13;;;4.90;94.20;;;;;;4916074;29;20050;-65
2021/04/15 05:35:05;;;;;;;5.53;3.13;;;5.00;94.10;;;;;;4915313;29;20140;-70
2021/04/15 05:37:30;;;;;;;4.72;3.50;;;5.10;94.00;;;;;;4915721;29;20131;-68
2021/04/15 05:39:57;;;;;;;4.75;3.95;;;5.20;93.90;;;;;;4915983;29;20533;-66
2021/04/15 05:42:42;;;;;;;6.70;4.05;;;5.20;93.80;;;;;;4915846;29;20386;-71
2021/04/15 05:45:19;;;;;;;7.38;4.93;;;5.30;93.70;;;;;;4915253;29;20031;-67
2021/04/15 05:47:47;;;;;;;10.10;4.70;;;5.30;93.60;;;;;;4915497;29;20035;-68
2021/04/15 05:50:31;;;;;;;7.47;5.68;;;5.40;93.60;;;;;;4913842;29;20492;-74
2021/04/15 05:53:02;;;;;;;10.70;4.70;;;5.50;93.50;;;;;;4903219;29;20091;-76
2021/04/15 05:55:47;;;;;;;5.40;4.70;;;5.60;93.40;;;;;;4915359;29;20024;-72
2021/04/15 05:58:26;;;;;;;19.02;5.32;;;5.70;93.30;;;;;;4896623;29;20040;-72
2021/04/15 06:01:07;;;;;;;6.85;4.10;;;5.80;93.30;;;;;;4908586;29;20028;-76
2021/04/15 06:03:33;;;;;;;7.93;4.10;;;5.80;93.10;;;;;;4915640;29;20377;-69
2021/04/15 06:06:05;;;;;;;6.53;3.85;;;5.90;92.90;;;;;;4911939;29;20040;-76
2021/04/15 06:08:35;;;;;;;14.00;5.30;;;5.90;92.80;;;;;;4914938;29;20024;-72
2021/04/15 06:11:47;;;;;;;8.05;3.67;;;5.90;92.80;;;;;;4915520;29;20027;-84
2021/04/15 06:14:40;;;;;;;3.88;3.30;;;5.90;92.70;;;;;;4901537;29;20496;-82
2021/04/15 06:17:27;;;;;;;486.30;39.17;;;6.00;92.50;;;;;;4915021;29;20028;-72
2021/04/15 06:19:57;;;;;;;7.18;4.70;;;6.00;92.60;;;;;;4912425;29;20051;-75
2021/04/15 06:22:26;;;;;;;8.40;3.30;;;6.20;92.60;;;;;;4913949;29;20028;-72
2021/04/15 06:25:06;;;;;;;8.65;3.35;;;6.20;92.30;;;;;;4914168;29;20039;-66
2021/04/15 06:27:32;;;;;;;6.75;3.33;;;6.30;92.20;;;;;;4913166;29;20048;-70
2021/04/15 06:30:07;;;;;;;6.53;3.28;;;6.50;92.10;;;;;;4915428;29;20056;-69
2021/04/15 06:32:52;;;;;;;7.82;3.22;;;6.60;92.00;;;;;;4914809;29;20388;-70
2021/04/15 06:35:31;;;;;;;5.50;3.17;;;6.70;91.80;;;;;;4915410;29;20052;-69
2021/04/15 06:38:21;;;;;;;8.82;3.00;;;6.80;91.70;;;;;;4914941;29;20122;-70
2021/04/15 06:41:19;;;;;;;5.82;3.88;;;6.80;91.50;;;;;;4914198;29;20036;-67
2021/04/15 06:44:11;;;;;;;4.13;2.53;;;6.60;91.30;;;;;;4911725;29;20043;-69
2021/04/15 06:46:57;;;;;;;8.70;2.88;;;6.50;91.30;;;;;;4914711;29;20035;-68
2021/04/15 06:49:41;;;;;;;6.90;2.83;;;6.40;91.30;;;;;;4915247;29;20050;-70
2021/04/15 06:52:40;;;;;;;5.35;3.05;;;6.40;91.60;;;;;;4914810;29;20047;-68
2021/04/15 06:55:29;;;;;;;11.77;5.65;;;6.40;91.70;;;;;;4914032;29;20107;-69
2021/04/15 06:58:10;;;;;;;4.80;3.00;;;6.30;91.50;;;;;;4914569;29;20028;-68
2021/04/15 07:00:48;;;;;;;5.35;3.03;;;6.20;91.60;;;;;;4914963;29;20028;-68
2021/04/15 07:03:47;;;;;;;6.70;3.53;;;6.10;91.70;;;;;;4915345;29;20052;-70
2021/04/15 07:06:41;;;;;;;4.93;2.92;;;6.00;91.80;;;;;;4918888;29;20083;-69
2021/04/15 07:09:34;;;;;;;4.85;3.30;;;6.00;92.10;;;;;;4917834;29;20024;-69
2021/04/15 07:12:14;;;;;;;;;;;6.00;92.30;;;;;;4918967;29;20016;-67
2021/04/15 07:14:42;;;;;;;6.97;3.67;;;6.00;92.30;;;;;;4918546;29;19950;-67
2021/04/15 07:17:29;;;;;;;6.03;2.58;;;6.10;92.20;;;;;;4918376;29;20027;-69
2021/04/15 07:19:58;;;;;;;4.82;2.72;;;6.10;92.30;;;;;;4918448;29;20039;-68
2021/04/15 07:23:00;;;;;;;6.88;2.55;;;6.20;92.20;;;;;;4918186;29;20087;-68
2021/04/15 07:25:55;;;;;;;7.00;2.40;;;6.30;91.90;;;;;;4918643;29;20105;-67
2021/04/15 07:28:34;;;;;;;10.55;2.63;;;6.40;91.50;;;;;;4918700;29;20024;-68
2021/04/15 07:31:29;;;;;;;4.38;2.05;;;6.50;91.30;;;;;;4917661;29;20036;-70
2021/04/15 07:34:19;;;;;;;6.70;2.30;;;6.60;91.40;;;;;;4916568;29;20143;-68
2021/04/15 07:37:18;;;;;;;7.30;2.38;;;6.70;91.20;;;;;;4917333;29;20083;-70
2021/04/15 07:40:21;;;;;;;2.50;1.90;;;6.90;90.70;;;;;;4916823;29;20047;-68
2021/04/15 07:43:14;;;;;;;4.32;2.30;;;7.00;90.40;;;;;;4917793;29;20481;-68
2021/04/15 07:46:11;;;;;;;6.78;2.80;;;7.00;90.10;;;;;;4918179;29;20024;-70
2021/04/15 07:48:45;;;;;;;5.28;2.40;;;7.00;89.50;;;;;;4918203;29;20054;-72
2021/04/15 07:51:20;;;;;;;6.25;2.55;;;7.10;89.00;;;;;;4916187;29;20147;-71
2021/04/15 07:53:53;;;;;;;4.03;2.22;;;7.10;89.90;;;;;;4916442;29;20054;-69
2021/04/15 07:56:38;;;;;;;3.15;2.40;;;7.30;90.00;;;;;;4917289;29;20436;-70
2021/04/15 07:59:20;;;;;;;8.38;2.70;;;7.40;88.80;;;;;;4917106;29;20056;-70
2021/04/15 08:02:20;;;;;;;4.05;2.53;;;7.50;88.20;;;;;;4917646;29;20027;-73
2021/04/15 08:05:11;;;;;;;3.40;2.60;;;7.50;88.00;;;;;;4916784;29;20095;-72
2021/04/15 08:07:46;;;;;;;5.57;2.35;;;7.70;88.10;;;;;;4916664;29;20024;-70
2021/04/15 08:10:34;;;;;;;7.90;2.35;;;7.80;86.80;;;;;;4917952;29;20032;-71
2021/04/15 08:13:29;;;;;;;5.80;3.05;;;7.80;84.90;;;;;;4916803;29;20083;-73
2021/04/15 08:16:25;;;;;;;5.63;2.67;;;7.70;85.70;;;;;;4917360;29;20473;-70
2021/04/15 08:19:18;;;;;;;6.40;3.00;;;7.70;86.30;;;;;;4916520;29;20048;-70
2021/04/15 08:22:16;;;;;;;10.90;3.30;;;7.60;85.70;;;;;;4914728;29;20040;-72
2021/04/15 08:25:04;;;;;;;7.78;2.85;;;7.70;86.80;;;;;;4917389;29;20028;-72
2021/04/15 08:27:38;;;;;;;6.03;2.42;;;7.70;85.60;;;;;;4897853;29;20041;-70
2021/04/15 08:30:30;;;;;;;4.15;2.00;;;7.70;84.70;;;;;;4917335;29;20032;-71
2021/04/15 08:33:19;;;;;;;6.90;2.30;;;7.80;85.10;;;;;;4916508;29;20027;-71
2021/04/15 08:36:17;;;;;;;4.35;1.88;;;7.90;84.80;;;;;;4915547;29;20147;-69
2021/04/15 08:38:57;;;;;;;2.80;2.15;;;7.80;82.90;;;;;;4917402;29;20032;-72
2021/04/15 08:41:43;;;;;;;3.22;2.10;;;7.80;83.00;;;;;;4915458;29;20027;-71
2021/04/15 08:44:21;;;;;;;3.80;1.90;;;7.80;83.40;;;;;;4917276;29;20036;-72
2021/04/15 08:47:06;;;;;;;4.35;2.00;;;7.80;83.40;;;;;;4916327;29;20028;-70
2021/04/15 08:49:57;;;;;;;2.90;1.73;;;7.90;84.10;;;;;;4917213;29;20036;-73
2021/04/15 08:52:44;;;;;;;2.00;1.55;;;7.90;81.90;;;;;;4917351;29;20486;-70
2021/04/15 08:55:16;;;;;;;2.47;1.95;;;7.90;81.40;;;;;;4916572;29;20452;-72
2021/04/15 08:57:47;;;;;;;;;;;8.00;82.60;;;;;;4917452;29;20092;-71
2021/04/15 09:00:28;;;;;;;4.40;1.98;;;8.20;82.20;;;;;;4916583;29;20380;-68
2021/04/15 09:03:32;;;;;;;3.25;2.00;;;8.20;81.70;;;;;;4916463;29;20059;-67
2021/04/15 09:06:07;;;;;;;4.15;2.13;;;8.50;82.40;;;;;;4916582;29;20071;-69
2021/04/15 09:08:41;;;;;;;4.50;1.80;;;8.60;80.20;;;;;;4916128;29;20040;-72
2021/04/15 09:11:15;;;;;;;4.15;1.73;;;8.60;78.80;;;;;;4915389;29;20090;-71
2021/04/15 09:13:52;;;;;;;2.60;1.60;;;8.70;79.00;;;;;;4916588;29;20107;-66
2021/04/15 09:16:32;;;;;;;5.65;2.50;;;8.70;78.70;;;;;;4914832;29;20380;-70
2021/04/15 09:19:26;;;;;;;4.32;1.70;;;8.80;79.40;;;;;;4916374;29;20040;-70
2021/04/15 09:22:15;;;;;;;2.03;1.40;;;8.90;78.40;;;;;;4915557;29;20480;-67
2021/04/15 09:25:02;;;;;;;2.45;1.48;;;8.90;77.80;;;;;;4915176;29;20024;-71
2021/04/15 09:27:50;;;;;;;2.10;1.60;;;8.90;77.60;;;;;;4915904;29;20016;-68
2021/04/15 09:30:43;;;;;;;3.38;1.60;;;9.10;77.10;;;;;;4915725;29;20024;-67
2021/04/15 09:33:46;;;;;;;3.72;1.70;;;9.20;77.50;;;;;;4914976;29;20055;-71
2021/04/15 09:36:24;;;;;;;2.17;1.52;;;9.20;76.60;;;;;;4915630;29;20103;-68
2021/04/15 09:39:01;;;;;;;4.60;2.28;;;9.20;76.10;;;;;;4915892;29;20036;-66
2021/04/15 09:41:55;;;;;;;3.92;1.92;;;9.00;76.80;;;;;;4916307;29;20032;-69
2021/04/15 09:44:40;;;;;;;6.28;2.00;;;9.00;76.50;;;;;;4915561;29;20108;-69
2021/04/15 09:47:24;;;;;;;4.18;2.10;;;8.90;76.50;;;;;;4915851;29;20486;-69
2021/04/15 09:49:50;;;;;;;3.05;1.70;;;8.80;75.80;;;;;;4915288;29;20103;-67
2021/04/15 09:52:34;;;;;;;3.90;2.10;;;8.70;76.80;;;;;;4916116;29;20060;-67
2021/04/15 09:55:20;;;;;;;5.45;3.38;;;8.70;76.00;;;;;;4915633;29;20151;-72
2021/04/15 09:58:10;;;;;;;3.83;2.08;;;8.60;75.80;;;;;;4915008;29;20082;-72
2021/04/15 10:00:41;;;;;;;5.15;2.10;;;8.50;76.20;;;;;;4916019;29;20046;-67
2021/04/15 10:03:09;;;;;;;4.05;2.83;;;8.60;77.30;;;;;;4914288;29;20020;-70
2021/04/15 10:05:40;;;;;;;3.40;2.47;;;8.80;76.30;;;;;;4913995;29;20382;-71
2021/04/15 10:08:27;;;;;;;2.38;1.80;;;9.00;75.40;;;;;;4915425;29;20099;-70
2021/04/15 10:10:58;;;;;;;2.30;1.92;;;9.10;74.10;;;;;;4914856;29;20028;-69
2021/04/15 10:13:42;;;;;;;5.40;2.13;;;9.30;74.50;;;;;;4914323;29;20397;-68
2021/04/15 10:16:29;;;;;;;2.38;1.70;;;9.50;74.80;;;;;;4914350;29;20370;-68
2021/04/15 10:19:32;;;;;;;3.42;2.28;;;9.70;74.60;;;;;;4914815;29;20043;-71
2021/04/15 10:22:15;;;;;;;3.70;2.45;;;9.80;73.60;;;;;;4915215;29;20424;-72
2021/04/15 10:24:46;;;;;;;3.85;2.10;;;9.90;73.00;;;;;;4914700;29;20532;-68
2021/04/15 10:27:33;;;;;;;2.80;2.00;;;9.90;73.80;;;;;;4914150;29;20484;-69
2021/04/15 10:30:25;;;;;;;3.58;2.20;;;10.10;74.90;;;;;;4915210;29;20408;-69
2021/04/15 10:33:11;;;;;;;4.10;2.17;;;10.40;74.90;;;;;;4914486;29;20303;-71
2021/04/15 10:35:55;;;;;;;3.08;1.90;;;10.60;73.40;;;;;;4915168;29;20505;-71
2021/04/15 10:38:55;;;;;;;2.08;1.88;;;10.50;70.20;;;;;;4914889;29;20047;-71
2021/04/15 10:41:54;;;;;;;5.03;2.35;;;10.50;71.80;;;;;;4915048;29;20700;-72
2021/04/15 10:45:02;;;;;;;3.30;1.98;;;10.60;72.60;;;;;;4915326;29;20080;-71
2021/04/15 10:47:49;;;;;;;3.25;1.65;;;10.60;71.60;;;;;;4902962;29;20047;-72
2021/04/15 10:50:56;;;;;;;4.07;2.20;;;10.70;71.90;;;;;;4915200;29;20051;-73
2021/04/15 10:54:03;;;;;;;3.80;2.05;;;10.80;72.20;;;;;;4908338;29;20032;-71
2021/04/15 10:56:44;;;;;;;3.25;2.03;;;10.90;71.40;;;;;;4915176;29;20028;-71
2021/04/15 10:59:31;;;;;;;5.03;2.33;;;11.00;70.10;;;;;;4914034;29;20556;-71
2021/04/15 11:02:46;;;;;;;2.00;1.85;;;11.00;69.40;;;;;;4914278;29;20016;-71
2021/04/15 11:05:50;;;;;;;2.63;2.10;;;11.00;68.70;;;;;;4914626;29;20040;-71
2021/04/15 11:08:30;;;;;;;2.75;2.13;;;11.10;68.20;;;;;;4902703;29;20041;-71
2021/04/15 11:11:15;;;;;;;4.70;2.70;;;11.40;68.40;;;;;;4913556;29;20051;-71
2021/04/15 11:13:41;;;;;;;4.72;1.90;;;11.70;65.60;;;;;;4913751;29;20020;-71
2021/04/15 11:16:26;;;;;;;2.28;1.80;;;11.90;63.00;;;;;;4914013;29;20151;-70
2021/04/15 11:18:52;;;;;;;2.80;1.98;;;11.90;63.00;;;;;;4914368;29;20481;-66
2021/04/15 11:21:24;;;;;;;4.07;2.35;;;11.90;64.30;;;;;;4914853;29;20099;-70
2021/04/15 11:23:52;;;;;;;4.30;2.05;;;11.80;64.10;;;;;;4914800;29;20050;-72
2021/04/15 11:26:42;;;;;;;2.45;2.00;;;11.70;63.50;;;;;;4915060;29;20049;-70
2021/04/15 11:29:26;;;;;;;1.90;1.63;;;11.60;63.10;;;;;;4914056;29;20039;-68
2021/04/15 11:31:53;;;;;;;4.20;1.88;;;11.50;62.30;;;;;;4914660;29;20027;-69
2021/04/15 11:34:27;;;;;;;3.72;1.98;;;11.40;60.30;;;;;;4914802;29;20036;-68
2021/04/15 11:37:08;;;;;;;3.47;1.67;;;11.30;61.10;;;;;;4912460;29;20108;-67
2021/04/15 11:39:36;;;;;;;2.88;1.58;;;11.50;62.10;;;;;;4914623;29;20496;-68
2021/04/15 11:42:02;;;;;;;3.22;1.92;;;11.80;58.30;;;;;;4913608;29;20028;-70
2021/04/15 11:44:35;;;;;;;2.17;1.55;;;12.10;56.50;;;;;;4914836;29;20039;-68
2021/04/15 11:47:14;;;;;;;4.15;1.50;;;12.30;56.00;;;;;;4914489;29;20461;-68
2021/04/15 11:49:44;;;;;;;2.35;1.70;;;12.70;54.70;;;;;;4914219;29;20043;-69
2021/04/15 11:52:15;;;;;;;1.75;1.50;;;12.90;52.00;;;;;;4917157;29;20442;-71
2021/04/15 11:54:53;;;;;;;4.18;1.90;;;13.10;51.10;;;;;;4918000;29;20040;-68
2021/04/15 11:57:18;;;;;;;2.95;1.98;;;13.20;50.90;;;;;;4916214;29;20073;-68
2021/04/15 12:00:01;;;;;;;1.50;1.40;;;13.30;50.60;;;;;;4917554;29;20076;-69
2021/04/15 12:02:31;;;;;;;2.85;1.80;;;13.00;48.50;;;;;;4917926;29;20028;-70
2021/04/15 12:05:30;;;;;;;1.90;1.60;;;12.80;50.40;;;;;;4915450;29;20028;-71
2021/04/15 12:07:59;;;;;;;3.03;1.73;;;12.50;51.40;;;;;;4916834;29;20115;-68
2021/04/15 12:10:28;;;;;;;4.65;1.73;;;12.30;51.20;;;;;;4915386;29;20154;-69
2021/04/15 12:13:07;;;;;;;3.92;2.22;;;12.10;52.70;;;;;;4915819;29;20024;-67
2021/04/15 12:15:39;;;;;;;1.83;1.70;;;12.10;55.00;;;;;;4917616;29;20028;-66
2021/04/15 12:18:24;;;;;;;1.90;1.70;;;12.10;54.70;;;;;;4916806;29;20028;-69
2021/04/15 12:21:00;;;;;;;2.30;1.95;;;12.20;55.60;;;;;;4916150;29;20025;-68
2021/04/15 12:23:47;;;;;;;2.20;1.70;;;12.30;53.90;;;;;;4903948;29;20031;-69
2021/04/15 12:26:25;;;;;;;2.03;1.50;;;12.40;52.00;;;;;;4915545;29;20032;-68
2021/04/15 12:29:01;;;;;;;2.60;1.80;;;12.60;52.90;;;;;;4915484;29;20071;-69
2021/04/15 12:31:38;;;;;;;2.95;2.05;;;12.90;51.40;;;;;;4917001;29;20056;-67
2021/04/15 12:34:14;;;;;;;2.80;1.98;;;13.10;48.10;;;;;;4917219;29;20146;-70
2021/04/15 12:36:47;;;;;;;2.47;1.90;;;12.90;46.50;;;;;;4913576;29;20032;-68
2021/04/15 12:39:20;;;;;;;2.53;1.90;;;12.70;47.50;;;;;;4916218;29;20511;-75
2021/04/15 12:41:47;;;;;;;2.00;1.90;;;12.70;48.80;;;;;;4916786;29;20024;-69
2021/04/15 12:44:23;;;;;;;3.35;2.30;;;13.00;49.20;;;;;;4916476;29;20103;-70
2021/04/15 12:46:50;;;;;;;3.25;2.22;;;13.10;48.00;;;;;;4915457;29;20031;-69
2021/04/15 12:49:20;;;;;;;2.90;2.20;;;13.10;49.00;;;;;;4915658;29;20433;-71
2021/04/15 12:51:48;;;;;;;3.72;2.28;;;13.00;49.60;;;;;;4916220;29;20091;-69
2021/04/15 12:54:18;;;;;;;2.45;2.10;;;12.90;49.90;;;;;;4914923;29;20035;-70
2021/04/15 12:56:51;;;;;;;3.85;2.05;;;12.90;50.00;;;;;;4913793;29;20437;-68
2021/04/15 12:59:21;;;;;;;3.15;1.90;;;12.60;47.90;;;;;;4916015;29;20032;-74
2021/04/15 13:01:48;;;;;;;4.13;2.35;;;12.20;48.20;;;;;;4912786;29;20027;-72
2021/04/15 13:04:13;;;;;;;2.08;1.73;;;12.00;49.80;;;;;;4914398;29;20028;-78
2021/04/15 13:07:01;;;;;;;2.58;1.90;;;11.80;48.70;;;;;;4914182;29;20040;-73
2021/04/15 13:09:47;;;;;;;3.13;2.30;;;11.70;49.60;;;;;;4916202;29;20408;-72
2021/04/15 13:12:34;;;;;;;8.02;2.38;;;11.80;50.00;;;;;;4916234;29;20024;-68
2021/04/15 13:15:04;;;;;;;4.22;2.55;;;11.70;50.10;;;;;;4913856;29;20095;-73
2021/04/15 13:17:35;;;;;;;5.57;2.40;;;11.70;50.40;;;;;;4915996;29;20404;-73
2021/04/15 13:20:09;;;;;;;4.07;2.92;;;11.70;50.90;;;;;;4914890;29;20040;-71
2021/04/15 13:22:41;;;;;;;5.90;3.28;;;11.80;50.80;;;;;;4914423;29;20028;-71
2021/04/15 13:25:12;;;;;;;2.28;2.05;;;12.00;51.00;;;;;;4914584;29;20043;-76
2021/04/15 13:27:40;;;;;;;2.83;1.98;;;12.00;50.40;;;;;;4915598;29;20024;-78
2021/04/15 13:30:14;;;;;;;3.13;2.10;;;12.10;51.10;;;;;;4916297;29;20028;-78
2021/04/15 13:32:58;;;;;;;4.00;1.95;;;12.10;50.70;;;;;;4915625;29;20509;-85
2021/04/15 13:35:50;;;;;;;3.17;1.95;;;12.20;50.20;;;;;;4915836;29;20052;-75
2021/04/15 13:38:28;;;;;;;3.75;1.85;;;12.30;49.60;;;;;;4916433;29;20115;-76
2021/04/15 13:40:55;;;;;;;2.55;1.95;;;12.40;47.30;;;;;;4915429;29;20095;-80
2021/04/15 13:43:49;;;;;;;4.70;1.80;;;12.40;46.10;;;;;;4925074;29;20040;-78
2021/04/15 13:49:00;;;;;;;3.67;1.70;;;12.80;46.10;;;;;;4915257;29;20263;-75
2021/04/15 13:51:39;;;;;;;2.53;1.83;;;13.00;44.70;;;;;;4916459;29;20024;-80
2021/04/15 13:54:06;;;;;;;1.75;1.50;;;13.10;45.10;;;;;;4914730;29;20075;-73
2021/04/15 13:56:35;;;;;;;2.10;1.70;;;13.10;46.20;;;;;;4915303;29;20028;-77
2021/04/15 13:59:01;;;;;;;3.20;2.15;;;13.00;46.90;;;;;;4915532;29;20096;-78